Time;durP1;ratioP1;P1;durP2;ratioP2;P2;SDS_P1;SDS_P2;PMS_P1;PMS_P2;Temp;Humidity;BMP_temperature;BMP_pressure;BME280_temperature;BME280_humidity;BME280_pressure;Samples;Min_cycle;Max_cycle;Signal;HPM_P1;HPM_P2
2022/08/06 00:01:45;;;;;;;4.03;1.75;;;;;;;;;;5017414;28;20211;-32
2022/08/06 00:04:12;;;;;;;2.30;2.00;;;;;;;;;;5029139;28;20204;-32
2022/08/06 00:06:39;;;;;;;2.80;1.60;;;;;;;;;;5024928;28;20241;-33
2022/08/06 00:09:06;;;;;;;2.78;1.60;;;;;;;;;;5045092;28;20193;-31
2022/08/06 00:11:33;;;;;;;1.85;1.75;;;;;;;;;;5049659;28;20587;-34
2022/08/06 00:14:02;;;;;;;1.55;1.45;;;;;;;;;;5033325;28;20203;-35
2022/08/06 00:16:32;;;;;;;2.22;1.73;;;;;;;;;;5024178;28;20297;-33
2022/08/06 00:18:59;;;;;;;1.50;1.40;;;;;;;;;;5037216;28;20510;-34
2022/08/06 00:21:26;;;;;;;2.88;1.80;;;;;;;;;;5025824;28;20211;-33
2022/08/06 00:23:53;;;;;;;3.00;1.45;;;;;;;;;;5033552;28;20215;-33
2022/08/06 00:26:21;;;;;;;2.00;1.50;;;;;;;;;;5052384;28;20416;-32
2022/08/06 00:28:49;;;;;;;4.95;1.52;;;;;;;;;;5034133;28;20263;-34
2022/08/06 00:31:17;;;;;;;1.88;1.70;;;;;;;;;;5025018;28;20219;-34
2022/08/06 00:33:45;;;;;;;1.30;1.20;;;;;;;;;;5039379;28;20239;-35
2022/08/06 00:36:12;;;;;;;1.95;1.33;;;;;;;;;;5028680;28;20220;-34
2022/08/06 00:38:39;;;;;;;1.55;1.45;;;;;;;;;;5034101;28;20608;-29
2022/08/06 00:41:06;;;;;;;2.50;1.38;;;;;;;;;;5040696;28;20225;-31
2022/08/06 00:43:33;;;;;;;1.40;1.30;;;;;;;;;;5031272;28;20213;-33
2022/08/06 00:46:00;;;;;;;1.33;1.20;;;;;;;;;;5027636;28;20208;-33
2022/08/06 00:48:29;;;;;;;1.55;1.30;;;;;;;;;;5021635;28;20721;-32
2022/08/06 00:50:56;;;;;;;1.15;1.15;;;;;;;;;;5037389;28;20213;-35
2022/08/06 00:55:51;;;;;;;1.30;1.20;;;;;;;;;;5044036;28;20224;-39
2022/08/06 00:58:18;;;;;;;1.23;1.00;;;;;;;;;;5041897;28;20219;-33
2022/08/06 01:00:45;;;;;;;1.23;1.13;;;;;;;;;;5047336;28;20220;-40
2022/08/06 01:03:16;;;;;;;1.30;1.20;;;;;;;;;;5045417;28;20213;-44
2022/08/06 01:05:44;;;;;;;1.10;1.10;;;;;;;;;;5047436;28;20213;-41
2022/08/06 01:08:12;;;;;;;2.42;1.27;;;;;;;;;;5048424;28;20228;-42
2022/08/06 01:10:39;;;;;;;2.35;1.45;;;;;;;;;;5050153;28;20197;-38
2022/08/06 01:13:06;;;;;;;1.02;1.00;;;;;;;;;;5050344;28;20213;-37
2022/08/06 01:15:33;;;;;;;1.50;1.40;;;;;;;;;;5046124;28;20205;-41
2022/08/06 01:18:02;;;;;;;1.75;1.30;;;;;;;;;;5049891;28;20226;-37
2022/08/06 01:20:36;;;;;;;1.08;1.05;;;;;;;;;;5046507;28;20223;-40
2022/08/06 01:23:16;;;;;;;1.27;1.20;;;;;;;;;;5041949;28;20229;-35
2022/08/06 01:25:58;;;;;;;1.10;1.00;;;;;;;;;;5045774;28;20207;-41
2022/08/06 01:28:28;;;;;;;1.00;1.00;;;;;;;;;;5046570;28;20227;-41
2022/08/06 01:30:59;;;;;;;1.58;1.10;;;;;;;;;;5046512;28;20223;-43
2022/08/06 01:33:27;;;;;;;1.58;1.20;;;;;;;;;;5043576;28;20227;-37
2022/08/06 01:35:57;;;;;;;1.58;1.35;;;;;;;;;;5045651;28;20215;-37
2022/08/06 01:38:27;;;;;;;1.30;1.20;;;;;;;;;;5045168;28;20237;-39
2022/08/06 01:40:56;;;;;;;2.03;1.00;;;;;;;;;;5050088;28;20218;-40
2022/08/06 01:43:23;;;;;;;2.25;1.20;;;;;;;;;;5049622;28;20211;-41
2022/08/06 01:45:53;;;;;;;1.73;1.30;;;;;;;;;;5042168;28;20221;-36
2022/08/06 01:48:22;;;;;;;5.10;1.27;;;;;;;;;;5025948;28;20223;-42
2022/08/06 01:50:51;;;;;;;1.40;1.00;;;;;;;;;;5045514;28;20197;-38
2022/08/06 01:53:28;;;;;;;0.88;0.88;;;;;;;;;;5037024;28;20200;-40
2022/08/06 01:55:58;;;;;;;1.20;1.10;;;;;;;;;;5049464;28;20216;-37
2022/08/06 01:58:27;;;;;;;1.10;1.00;;;;;;;;;;5048951;28;20681;-36
2022/08/06 02:00:56;;;;;;;2.58;1.08;;;;;;;;;;5038174;28;20220;-43
2022/08/06 02:03:25;;;;;;;1.10;1.00;;;;;;;;;;5048892;28;20205;-40
2022/08/06 02:05:53;;;;;;;2.17;1.35;;;;;;;;;;5043352;28;20204;-39
2022/08/06 02:08:21;;;;;;;1.15;0.88;;;;;;;;;;5040561;28;20299;-41
2022/08/06 02:10:49;;;;;;;1.35;1.25;;;;;;;;;;5048965;28;20279;-39
2022/08/06 02:13:16;;;;;;;1.10;1.00;;;;;;;;;;5047515;28;20213;-41
2022/08/06 02:15:45;;;;;;;1.00;0.95;;;;;;;;;;5042692;28;20211;-37
2022/08/06 02:18:15;;;;;;;1.40;1.02;;;;;;;;;;5047497;28;20231;-36
2022/08/06 02:20:44;;;;;;;1.35;1.00;;;;;;;;;;5045539;28;20224;-36
2022/08/06 02:23:14;;;;;;;1.60;1.08;;;;;;;;;;5048021;28;20213;-43
2022/08/06 02:25:42;;;;;;;3.63;1.00;;;;;;;;;;5049641;28;20197;-38
2022/08/06 02:28:10;;;;;;;1.70;1.00;;;;;;;;;;5049361;28;20227;-41
2022/08/06 02:30:38;;;;;;;1.08;1.00;;;;;;;;;;5046700;28;20200;-39
2022/08/06 02:33:06;;;;;;;1.83;1.38;;;;;;;;;;5047431;28;20205;-38
2022/08/06 02:35:37;;;;;;;1.48;0.90;;;;;;;;;;5045086;28;20197;-41
2022/08/06 02:38:09;;;;;;;0.95;0.95;;;;;;;;;;5045422;28;20232;-40
2022/08/06 02:40:38;;;;;;;2.00;1.00;;;;;;;;;;5049340;28;20225;-40
2022/08/06 02:43:06;;;;;;;0.73;0.73;;;;;;;;;;5049291;28;20230;-38
2022/08/06 02:45:37;;;;;;;1.20;1.10;;;;;;;;;;5041594;28;20212;-39
2022/08/06 02:48:09;;;;;;;0.80;0.80;;;;;;;;;;5048560;28;20229;-40
2022/08/06 02:50:40;;;;;;;0.80;0.80;;;;;;;;;;5045879;28;20210;-43
2022/08/06 02:53:08;;;;;;;3.13;1.05;;;;;;;;;;5039983;28;20212;-38
2022/08/06 02:55:38;;;;;;;4.35;0.90;;;;;;;;;;5049961;28;20209;-36
2022/08/06 02:58:09;;;;;;;2.42;0.82;;;;;;;;;;5050621;28;20229;-35
2022/08/06 03:00:38;;;;;;;1.52;1.00;;;;;;;;;;5047908;28;20224;-39
2022/08/06 03:03:07;;;;;;;0.95;0.95;;;;;;;;;;5048816;28;20222;-41
2022/08/06 03:05:34;;;;;;;0.98;0.98;;;;;;;;;;5048343;28;20203;-37
2022/08/06 03:08:03;;;;;;;0.80;0.80;;;;;;;;;;5041086;28;20221;-40
2022/08/06 03:10:31;;;;;;;1.77;1.08;;;;;;;;;;5052085;28;20196;-42
2022/08/06 03:12:59;;;;;;;0.82;0.82;;;;;;;;;;5052973;28;20205;-37
2022/08/06 03:15:26;;;;;;;0.82;0.82;;;;;;;;;;5048851;28;20223;-39
2022/08/06 03:17:58;;;;;;;0.85;0.85;;;;;;;;;;5049129;28;20228;-37
2022/08/06 03:20:26;;;;;;;1.17;0.82;;;;;;;;;;5049491;28;20224;-38
2022/08/06 03:22:54;;;;;;;1.10;0.85;;;;;;;;;;5044109;28;20202;-37
2022/08/06 03:25:23;;;;;;;1.25;1.17;;;;;;;;;;5052009;28;20228;-39
2022/08/06 03:27:50;;;;;;;2.80;1.00;;;;;;;;;;5052759;28;20236;-40
2022/08/06 03:30:18;;;;;;;1.55;1.15;;;;;;;;;;5047550;28;20198;-37
2022/08/06 03:32:46;;;;;;;1.20;0.95;;;;;;;;;;5051304;28;20199;-39
2022/08/06 03:35:13;;;;;;;1.10;0.98;;;;;;;;;;5052057;28;20205;-37
2022/08/06 03:37:41;;;;;;;1.00;0.90;;;;;;;;;;5042480;28;20245;-40
2022/08/06 03:40:09;;;;;;;1.33;0.90;;;;;;;;;;5051383;28;20224;-38
2022/08/06 03:42:38;;;;;;;0.80;0.80;;;;;;;;;;5052031;28;20228;-37
2022/08/06 03:45:05;;;;;;;2.28;1.05;;;;;;;;;;5045341;28;20206;-35
2022/08/06 03:47:33;;;;;;;0.55;0.55;;;;;;;;;;5046329;28;20224;-35
2022/08/06 03:50:03;;;;;;;1.08;0.98;;;;;;;;;;5051757;28;20194;-39
2022/08/06 03:52:32;;;;;;;0.77;0.77;;;;;;;;;;5046445;28;20234;-40
2022/08/06 03:55:02;;;;;;;2.10;1.13;;;;;;;;;;5048561;28;20203;-40
2022/08/06 03:57:34;;;;;;;0.85;0.85;;;;;;;;;;5052375;28;20230;-35
2022/08/06 04:00:03;;;;;;;1.23;1.10;;;;;;;;;;5041573;28;20224;-38
2022/08/06 04:02:31;;;;;;;1.13;1.00;;;;;;;;;;5051084;28;20206;-40
2022/08/06 04:04:59;;;;;;;0.90;0.90;;;;;;;;;;5052100;28;20214;-34
2022/08/06 04:07:26;;;;;;;2.33;1.20;;;;;;;;;;5040313;28;20298;-39
2022/08/06 04:09:54;;;;;;;1.27;0.98;;;;;;;;;;5048304;28;20204;-35
2022/08/06 04:12:21;;;;;;;1.20;0.90;;;;;;;;;;5050978;28;20212;-35
2022/08/06 04:14:49;;;;;;;1.20;1.10;;;;;;;;;;5040155;28;20234;-40
2022/08/06 04:17:18;;;;;;;1.50;0.80;;;;;;;;;;5045642;28;20215;-40
2022/08/06 04:19:46;;;;;;;1.67;0.90;;;;;;;;;;5051252;28;20200;-38
2022/08/06 04:22:13;;;;;;;2.15;0.98;;;;;;;;;;5046152;28;20218;-39
2022/08/06 04:24:41;;;;;;;2.75;1.10;;;;;;;;;;5040622;28;20882;-37
2022/08/06 04:27:08;;;;;;;2.78;1.13;;;;;;;;;;5048739;28;20231;-40
2022/08/06 04:29:37;;;;;;;1.58;0.98;;;;;;;;;;5050897;28;20203;-36
2022/08/06 04:32:05;;;;;;;0.73;0.73;;;;;;;;;;5051217;28;20199;-37
2022/08/06 04:34:34;;;;;;;1.23;0.90;;;;;;;;;;5045848;28;20214;-38
2022/08/06 04:37:12;;;;;;;0.90;0.88;;;;;;;;;;5049223;28;20226;-34
2022/08/06 04:39:39;;;;;;;1.23;0.88;;;;;;;;;;5053736;28;20206;-38
2022/08/06 04:42:07;;;;;;;1.92;1.00;;;;;;;;;;5053664;28;20206;-42
2022/08/06 04:44:34;;;;;;;1.42;0.90;;;;;;;;;;5051297;28;20207;-39
2022/08/06 04:47:02;;;;;;;1.23;0.90;;;;;;;;;;5047463;28;20229;-37
2022/08/06 04:49:30;;;;;;;0.88;0.80;;;;;;;;;;5049837;28;20209;-38
2022/08/06 04:51:58;;;;;;;1.85;1.10;;;;;;;;;;5048881;28;20226;-37
2022/08/06 04:54:25;;;;;;;1.27;1.00;;;;;;;;;;5051934;28;20208;-33
2022/08/06 04:56:52;;;;;;;1.70;0.77;;;;;;;;;;5050912;28;20217;-38
2022/08/06 04:59:19;;;;;;;0.80;0.80;;;;;;;;;;5049523;28;20219;-37
2022/08/06 05:01:47;;;;;;;3.03;1.30;;;;;;;;;;5041852;28;20227;-39
2022/08/06 05:04:14;;;;;;;1.02;0.93;;;;;;;;;;5051753;28;20205;-34
2022/08/06 05:06:44;;;;;;;1.17;0.80;;;;;;;;;;5041655;28;20233;-35
2022/08/06 05:09:14;;;;;;;0.80;0.80;;;;;;;;;;5045775;28;20223;-39
2022/08/06 05:11:42;;;;;;;2.38;0.98;;;;;;;;;;5052493;28;20218;-36
2022/08/06 05:14:11;;;;;;;1.10;0.80;;;;;;;;;;5047894;28;20217;-41
2022/08/06 05:16:40;;;;;;;0.98;0.95;;;;;;;;;;5039862;28;20310;-35
2022/08/06 05:19:11;;;;;;;3.58;1.30;;;;;;;;;;5052598;28;20203;-38
2022/08/06 05:21:39;;;;;;;1.02;0.93;;;;;;;;;;5044609;28;20301;-39
2022/08/06 05:24:07;;;;;;;2.33;0.90;;;;;;;;;;5051370;28;20226;-38
2022/08/06 05:26:36;;;;;;;2.65;1.00;;;;;;;;;;5053092;28;20227;-37
2022/08/06 05:29:03;;;;;;;2.35;0.98;;;;;;;;;;5052470;28;20211;-33
2022/08/06 05:31:31;;;;;;;1.38;1.10;;;;;;;;;;5039886;28;20225;-39
2022/08/06 05:33:58;;;;;;;1.48;0.90;;;;;;;;;;5052362;28;20202;-36
2022/08/06 05:36:25;;;;;;;0.98;0.95;;;;;;;;;;5047752;28;20214;-42
2022/08/06 05:38:52;;;;;;;0.80;0.80;;;;;;;;;;5052063;28;20203;-34
2022/08/06 05:41:19;;;;;;;1.23;0.90;;;;;;;;;;5044285;28;20231;-36
2022/08/06 05:43:48;;;;;;;1.10;1.00;;;;;;;;;;5043115;28;20207;-34
2022/08/06 05:46:17;;;;;;;1.15;0.77;;;;;;;;;;5043717;28;20229;-40
2022/08/06 05:48:46;;;;;;;1.33;1.02;;;;;;;;;;5052651;28;20201;-37
2022/08/06 05:51:15;;;;;;;2.58;1.05;;;;;;;;;;5045850;28;20204;-33
2022/08/06 05:53:45;;;;;;;1.52;0.85;;;;;;;;;;5041101;28;20209;-39
2022/08/06 05:56:15;;;;;;;1.90;1.23;;;;;;;;;;5051706;28;20199;-34
2022/08/06 05:58:46;;;;;;;5.53;1.00;;;;;;;;;;5051564;28;20210;-37
2022/08/06 06:01:15;;;;;;;0.90;0.90;;;;;;;;;;5040402;28;20224;-35
2022/08/06 06:03:42;;;;;;;0.90;0.85;;;;;;;;;;5048862;28;20215;-38
2022/08/06 06:06:12;;;;;;;1.30;1.20;;;;;;;;;;5044932;28;20214;-34
2022/08/06 06:08:39;;;;;;;1.77;1.08;;;;;;;;;;5043001;28;20212;-35
2022/08/06 06:11:07;;;;;;;1.10;1.10;;;;;;;;;;5050419;28;20194;-39
2022/08/06 06:13:35;;;;;;;1.80;1.00;;;;;;;;;;5045000;28;20273;-34
2022/08/06 06:16:08;;;;;;;1.30;1.10;;;;;;;;;;5037612;28;20216;-40
2022/08/06 06:18:43;;;;;;;0.90;0.90;;;;;;;;;;5050097;28;20220;-40
2022/08/06 06:21:14;;;;;;;1.10;0.90;;;;;;;;;;5044994;28;20215;-36
2022/08/06 06:23:43;;;;;;;2.22;1.20;;;;;;;;;;5049646;28;20204;-39
2022/08/06 06:26:14;;;;;;;1.40;1.15;;;;;;;;;;5050125;28;20203;-36
2022/08/06 06:28:47;;;;;;;3.13;0.88;;;;;;;;;;5035957;28;20226;-37
2022/08/06 06:31:20;;;;;;;3.25;1.10;;;;;;;;;;5042660;28;20195;-39
2022/08/06 06:33:52;;;;;;;1.20;1.10;;;;;;;;;;5045776;28;20206;-32
2022/08/06 06:36:24;;;;;;;4.47;0.93;;;;;;;;;;5048265;28;20225;-37
2022/08/06 06:38:58;;;;;;;1.13;1.10;;;;;;;;;;5049815;28;20214;-39
2022/08/06 06:41:26;;;;;;;1.25;1.00;;;;;;;;;;5054448;28;20266;-38
2022/08/06 06:43:56;;;;;;;1.33;1.05;;;;;;;;;;5053884;28;20216;-37
2022/08/06 06:46:25;;;;;;;1.33;1.23;;;;;;;;;;5043548;28;20215;-43
2022/08/06 06:48:57;;;;;;;2.50;1.00;;;;;;;;;;5049978;28;20200;-38
2022/08/06 06:51:26;;;;;;;1.25;1.15;;;;;;;;;;5036811;28;20207;-39
2022/08/06 06:56:25;;;;;;;2.50;0.95;;;;;;;;;;5018311;28;20226;-40
2022/08/06 06:58:54;;;;;;;1.48;1.23;;;;;;;;;;5013301;28;20205;-34
2022/08/06 07:01:21;;;;;;;2.55;1.42;;;;;;;;;;5020183;28;20229;-40
2022/08/06 07:03:50;;;;;;;1.15;1.08;;;;;;;;;;5013651;28;20524;-39
2022/08/06 07:06:19;;;;;;;2.10;1.10;;;;;;;;;;5016216;28;20210;-36
2022/08/06 07:08:47;;;;;;;1.40;1.10;;;;;;;;;;5022954;28;20217;-39
2022/08/06 07:11:16;;;;;;;1.67;1.55;;;;;;;;;;5021441;28;20205;-39
2022/08/06 07:13:45;;;;;;;1.30;1.10;;;;;;;;;;5013106;28;20213;-38
2022/08/06 07:16:14;;;;;;;2.88;1.23;;;;;;;;;;5018474;28;20219;-34
2022/08/06 07:18:41;;;;;;;1.95;1.20;;;;;;;;;;5022389;28;20201;-38
2022/08/06 07:21:08;;;;;;;1.77;1.20;;;;;;;;;;5018102;28;20230;-41
2022/08/06 07:23:37;;;;;;;1.23;1.10;;;;;;;;;;5018196;28;20209;-40
2022/08/06 07:26:06;;;;;;;1.30;1.20;;;;;;;;;;5022814;28;20208;-43
2022/08/06 07:28:34;;;;;;;1.20;1.10;;;;;;;;;;5033110;28;20257;-35
2022/08/06 07:31:04;;;;;;;3.42;1.20;;;;;;;;;;5024871;28;20202;-37
2022/08/06 07:33:31;;;;;;;1.10;1.00;;;;;;;;;;5018053;28;20205;-39
2022/08/06 07:35:59;;;;;;;1.02;0.90;;;;;;;;;;5012190;28;20201;-36
2022/08/06 07:38:28;;;;;;;1.33;1.00;;;;;;;;;;5026652;28;20236;-38
2022/08/06 07:40:59;;;;;;;1.10;1.10;;;;;;;;;;5023862;28;20229;-40
2022/08/06 07:43:27;;;;;;;2.25;1.23;;;;;;;;;;5032316;28;20220;-40
2022/08/06 07:45:56;;;;;;;1.27;1.10;;;;;;;;;;5022854;28;20205;-35
2022/08/06 07:48:26;;;;;;;1.67;1.10;;;;;;;;;;5013535;28;20226;-39
2022/08/06 07:50:54;;;;;;;3.40;1.20;;;;;;;;;;5013032;28;20202;-38
2022/08/06 07:53:22;;;;;;;2.42;1.30;;;;;;;;;;5028902;28;20216;-40
2022/08/06 07:55:50;;;;;;;2.80;1.42;;;;;;;;;;5031358;28;20234;-42
2022/08/06 07:58:19;;;;;;;1.48;1.20;;;;;;;;;;5032412;28;20239;-40
2022/08/06 08:00:47;;;;;;;2.17;1.30;;;;;;;;;;5022800;28;20205;-41
2022/08/06 08:08:44;;;;;;;1.77;1.27;;;;;;;;;;5030896;28;20199;-37
2022/08/06 08:11:14;;;;;;;1.70;1.20;;;;;;;;;;5020471;28;20197;-42
2022/08/06 08:13:42;;;;;;;2.40;1.27;;;;;;;;;;5012485;28;20471;-39
2022/08/06 08:16:11;;;;;;;1.73;1.20;;;;;;;;;;5018210;28;20201;-41
2022/08/06 08:18:40;;;;;;;3.92;1.15;;;;;;;;;;5031861;28;20196;-39
2022/08/06 08:21:08;;;;;;;2.67;1.30;;;;;;;;;;5025972;28;20223;-40
2022/08/06 08:23:36;;;;;;;3.35;1.25;;;;;;;;;;5023726;28;20236;-38
2022/08/06 08:26:04;;;;;;;1.35;1.00;;;;;;;;;;5021544;28;20202;-34
2022/08/06 08:28:31;;;;;;;2.65;1.40;;;;;;;;;;5011316;28;20236;-41
2022/08/06 08:31:01;;;;;;;1.63;1.00;;;;;;;;;;5021500;28;20213;-39
2022/08/06 08:33:29;;;;;;;2.65;1.40;;;;;;;;;;5022117;28;20204;-40
2022/08/06 08:35:56;;;;;;;1.30;1.20;;;;;;;;;;5012838;28;20216;-40
2022/08/06 08:38:23;;;;;;;1.00;1.00;;;;;;;;;;5018518;28;20233;-38
2022/08/06 08:40:52;;;;;;;3.63;1.17;;;;;;;;;;5016958;28;20205;-36
2022/08/06 08:43:21;;;;;;;6.45;1.20;;;;;;;;;;5011224;28;20218;-35
2022/08/06 08:45:50;;;;;;;1.08;1.00;;;;;;;;;;5013957;28;20377;-38
2022/08/06 08:48:21;;;;;;;1.55;1.30;;;;;;;;;;5012856;28;20233;-40
2022/08/06 08:50:49;;;;;;;1.00;1.00;;;;;;;;;;5013485;28;20209;-40
2022/08/06 08:53:21;;;;;;;3.03;1.20;;;;;;;;;;5024509;28;20292;-42
2022/08/06 08:55:48;;;;;;;1.65;1.50;;;;;;;;;;5014791;28;20210;-36
2022/08/06 08:58:16;;;;;;;1.92;1.20;;;;;;;;;;5010531;28;20241;-36
2022/08/06 09:00:43;;;;;;;2.28;1.20;;;;;;;;;;5015082;28;20206;-37
2022/08/06 09:03:10;;;;;;;3.17;1.13;;;;;;;;;;5011143;28;20240;-43
2022/08/06 09:05:38;;;;;;;2.47;1.30;;;;;;;;;;5010187;28;20221;-43
2022/08/06 09:08:06;;;;;;;2.47;1.50;;;;;;;;;;5017236;28;20222;-37
2022/08/06 09:10:34;;;;;;;1.15;1.10;;;;;;;;;;5023224;28;20205;-37
2022/08/06 09:13:01;;;;;;;2.05;1.27;;;;;;;;;;5030504;28;20205;-43
2022/08/06 09:15:28;;;;;;;1.23;0.98;;;;;;;;;;5026685;28;20206;-36
2022/08/06 09:17:56;;;;;;;1.08;1.05;;;;;;;;;;5014779;28;20226;-39
2022/08/06 09:20:23;;;;;;;1.17;1.15;;;;;;;;;;5023865;28;20210;-41
2022/08/06 09:22:52;;;;;;;2.03;1.20;;;;;;;;;;5021393;28;20250;-35
2022/08/06 09:25:39;;;;;;;1.52;1.08;;;;;;;;;;5014219;28;20226;-37
2022/08/06 09:28:10;;;;;;;0.93;0.93;;;;;;;;;;5013398;28;20290;-36
2022/08/06 09:30:38;;;;;;;2.42;1.20;;;;;;;;;;5019295;28;20207;-39
2022/08/06 09:33:11;;;;;;;1.90;1.23;;;;;;;;;;5030138;28;20210;-39
2022/08/06 09:35:38;;;;;;;1.30;0.82;;;;;;;;;;5024857;28;20199;-38
2022/08/06 09:38:08;;;;;;;1.67;1.10;;;;;;;;;;5019871;28;20222;-40
2022/08/06 09:40:35;;;;;;;2.75;0.98;;;;;;;;;;5025681;28;20234;-36
2022/08/06 09:43:02;;;;;;;3.47;1.02;;;;;;;;;;5015431;28;20218;-36
2022/08/06 09:45:30;;;;;;;2.65;1.05;;;;;;;;;;5009816;28;20238;-35
2022/08/06 09:48:04;;;;;;;3.50;1.20;;;;;;;;;;5015523;28;20222;-37
2022/08/06 09:50:39;;;;;;;1.35;1.20;;;;;;;;;;5012001;28;20206;-41
2022/08/06 09:53:07;;;;;;;2.42;1.17;;;;;;;;;;5014869;28;20205;-35
2022/08/06 09:55:35;;;;;;;1.15;0.82;;;;;;;;;;5018586;28;20222;-40
2022/08/06 09:58:02;;;;;;;1.05;0.90;;;;;;;;;;5005912;28;20237;-39
2022/08/06 10:00:30;;;;;;;1.67;0.82;;;;;;;;;;5008775;28;20213;-38
2022/08/06 10:02:58;;;;;;;1.90;1.10;;;;;;;;;;5013449;28;20230;-38
2022/08/06 10:05:26;;;;;;;1.75;0.73;;;;;;;;;;5022443;28;20210;-40
2022/08/06 10:08:08;;;;;;;0.85;0.85;;;;;;;;;;5018321;28;20237;-37
2022/08/06 10:10:42;;;;;;;2.97;1.02;;;;;;;;;;5022911;28;20206;-38
2022/08/06 10:13:13;;;;;;;0.75;0.75;;;;;;;;;;5021542;28;20212;-41
2022/08/06 10:15:40;;;;;;;2.33;1.20;;;;;;;;;;5026386;28;20241;-38
2022/08/06 10:18:07;;;;;;;1.33;1.08;;;;;;;;;;5016134;28;20236;-35
2022/08/06 10:20:34;;;;;;;1.75;1.10;;;;;;;;;;5013552;28;20209;-40
2022/08/06 10:23:02;;;;;;;1.38;1.15;;;;;;;;;;5023055;28;20226;-41
2022/08/06 10:25:32;;;;;;;1.75;1.00;;;;;;;;;;5028577;28;20205;-41
2022/08/06 10:28:01;;;;;;;1.02;0.77;;;;;;;;;;5013812;28;20234;-41
2022/08/06 10:30:29;;;;;;;3.42;1.00;;;;;;;;;;5009503;28;20209;-40
2022/08/06 10:33:01;;;;;;;0.80;0.80;;;;;;;;;;5022554;28;20209;-39
2022/08/06 10:35:28;;;;;;;1.63;0.85;;;;;;;;;;5006797;28;20310;-37
2022/08/06 10:37:59;;;;;;;0.80;0.80;;;;;;;;;;5023085;28;20293;-36
2022/08/06 10:40:28;;;;;;;1.95;1.00;;;;;;;;;;5021405;28;20199;-39
2022/08/06 10:42:57;;;;;;;2.22;0.93;;;;;;;;;;5029257;28;20481;-38
2022/08/06 10:45:24;;;;;;;3.40;0.95;;;;;;;;;;5026829;28;20213;-41
2022/08/06 10:47:51;;;;;;;1.55;1.02;;;;;;;;;;5012527;28;20220;-36
2022/08/06 10:50:19;;;;;;;0.90;0.90;;;;;;;;;;5029117;28;20203;-35
2022/08/06 10:52:46;;;;;;;1.27;1.02;;;;;;;;;;5014431;28;20203;-34
2022/08/06 10:55:14;;;;;;;1.80;1.00;;;;;;;;;;5019416;28;20209;-41
2022/08/06 10:57:41;;;;;;;1.90;1.02;;;;;;;;;;5029682;28;20234;-38
2022/08/06 11:00:11;;;;;;;0.80;0.80;;;;;;;;;;5020644;28;20209;-33
2022/08/06 11:02:42;;;;;;;1.67;1.10;;;;;;;;;;5023691;28;20227;-42
2022/08/06 11:05:10;;;;;;;1.27;1.00;;;;;;;;;;5029360;28;20218;-39
2022/08/06 11:08:04;;;;;;;1.42;0.80;;;;;;;;;;5015057;28;20230;-43
2022/08/06 11:10:37;;;;;;;1.83;0.80;;;;;;;;;;5014619;28;20197;-36
2022/08/06 11:13:09;;;;;;;1.38;1.10;;;;;;;;;;5008244;28;20205;-37
2022/08/06 11:15:38;;;;;;;1.35;1.10;;;;;;;;;;5011287;28;20221;-40
2022/08/06 11:18:06;;;;;;;2.42;1.10;;;;;;;;;;5009256;28;20237;-38
2022/08/06 11:20:39;;;;;;;2.42;0.80;;;;;;;;;;5008986;28;20216;-39
2022/08/06 11:23:22;;;;;;;1.65;0.80;;;;;;;;;;5021719;28;20317;-39
2022/08/06 11:25:51;;;;;;;0.90;0.90;;;;;;;;;;5026344;28;20201;-34
2022/08/06 11:28:19;;;;;;;0.80;0.80;;;;;;;;;;5032771;28;20226;-37
2022/08/06 11:30:48;;;;;;;2.08;0.77;;;;;;;;;;5018650;28;20209;-39
2022/08/06 11:33:16;;;;;;;0.93;0.90;;;;;;;;;;5012300;28;20226;-39
2022/08/06 11:35:45;;;;;;;0.93;0.93;;;;;;;;;;5018474;28;20210;-37
2022/08/06 11:38:14;;;;;;;1.05;1.00;;;;;;;;;;5021970;28;20238;-38
2022/08/06 11:40:57;;;;;;;1.00;1.00;;;;;;;;;;5026683;28;20205;-37
2022/08/06 11:43:43;;;;;;;0.70;0.70;;;;;;;;;;5029722;28;20305;-41
2022/08/06 11:46:24;;;;;;;0.90;0.90;;;;;;;;;;5022344;28;20211;-36
2022/08/06 11:49:10;;;;;;;1.30;0.80;;;;;;;;;;5026003;28;20199;-35
2022/08/06 11:51:37;;;;;;;1.85;1.02;;;;;;;;;;5014805;28;20241;-37
2022/08/06 11:54:09;;;;;;;1.77;0.75;;;;;;;;;;5027087;28;20205;-40
2022/08/06 11:56:36;;;;;;;1.02;0.98;;;;;;;;;;5025609;28;20222;-41
2022/08/06 11:59:13;;;;;;;1.33;0.85;;;;;;;;;;5025245;28;20202;-42
2022/08/06 12:01:48;;;;;;;1.38;0.90;;;;;;;;;;5028349;28;20233;-39
2022/08/06 12:04:30;;;;;;;1.00;1.00;;;;;;;;;;5027659;28;20232;-39
2022/08/06 12:07:12;;;;;;;1.55;0.90;;;;;;;;;;5020098;28;20228;-43
2022/08/06 12:09:39;;;;;;;0.80;0.80;;;;;;;;;;5025789;28;20202;-33
2022/08/06 12:12:24;;;;;;;0.75;0.75;;;;;;;;;;5031900;28;20224;-36
2022/08/06 12:14:52;;;;;;;1.00;1.00;;;;;;;;;;5007480;28;20841;-40
2022/08/06 12:17:21;;;;;;;0.98;0.82;;;;;;;;;;5018750;28;20229;-42
2022/08/06 12:19:49;;;;;;;3.42;1.02;;;;;;;;;;5030526;28;20213;-41
2022/08/06 12:22:16;;;;;;;1.10;1.10;;;;;;;;;;5020849;28;20205;-41
2022/08/06 12:24:44;;;;;;;1.27;1.08;;;;;;;;;;5028602;28;20213;-35
2022/08/06 12:27:13;;;;;;;3.00;1.33;;;;;;;;;;5030906;28;20226;-41
2022/08/06 12:29:40;;;;;;;1.23;0.93;;;;;;;;;;5024765;28;20222;-38
2022/08/06 12:32:22;;;;;;;0.90;0.90;;;;;;;;;;5020068;28;20209;-40
2022/08/06 12:34:50;;;;;;;2.47;1.10;;;;;;;;;;5023141;28;20205;-41
2022/08/06 12:37:17;;;;;;;1.88;1.10;;;;;;;;;;5021339;28;20233;-41
2022/08/06 12:42:30;;;;;;;1.33;1.05;;;;;;;;;;5025407;28;20236;-40
2022/08/06 12:44:57;;;;;;;1.38;1.27;;;;;;;;;;5025999;28;20226;-36
2022/08/06 12:47:26;;;;;;;1.25;1.10;;;;;;;;;;5017822;28;20234;-39
2022/08/06 12:49:53;;;;;;;1.30;1.00;;;;;;;;;;5027928;28;20268;-38
2022/08/06 12:52:21;;;;;;;2.00;1.10;;;;;;;;;;5023767;28;20217;-41
2022/08/06 12:54:49;;;;;;;1.67;0.90;;;;;;;;;;5031310;28;20244;-40
2022/08/06 12:57:22;;;;;;;1.27;1.00;;;;;;;;;;5030835;28;20226;-44
2022/08/06 12:59:50;;;;;;;0.93;0.90;;;;;;;;;;5027971;28;20207;-39
2022/08/06 13:02:19;;;;;;;1.45;1.17;;;;;;;;;;5022471;28;20213;-41
2022/08/06 13:04:50;;;;;;;2.13;1.38;;;;;;;;;;5029939;28;20202;-38
2022/08/06 13:07:18;;;;;;;0.90;0.90;;;;;;;;;;5021758;28;20229;-35
2022/08/06 13:09:46;;;;;;;1.35;1.20;;;;;;;;;;5019376;28;20230;-39
2022/08/06 13:12:18;;;;;;;0.80;0.80;;;;;;;;;;5016515;28;20207;-39
2022/08/06 13:14:52;;;;;;;1.35;1.00;;;;;;;;;;5030522;28;20228;-36
2022/08/06 13:17:21;;;;;;;1.83;1.17;;;;;;;;;;5032865;28;20226;-39
2022/08/06 13:19:58;;;;;;;2.58;1.20;;;;;;;;;;5026875;28;20206;-39
2022/08/06 13:22:25;;;;;;;1.10;1.10;;;;;;;;;;5019043;28;20195;-38
2022/08/06 13:25:07;;;;;;;0.98;0.98;;;;;;;;;;5026765;28;20211;-39
2022/08/06 13:27:36;;;;;;;1.15;1.05;;;;;;;;;;5034102;28;20241;-40
2022/08/06 13:30:04;;;;;;;1.27;1.17;;;;;;;;;;5024872;28;20213;-38
2022/08/06 13:32:40;;;;;;;1.92;1.20;;;;;;;;;;5026515;28;20207;-42
2022/08/06 13:35:10;;;;;;;1.52;1.20;;;;;;;;;;5025001;28;20201;-37
2022/08/06 13:38:03;;;;;;;1.40;1.30;;;;;;;;;;5020951;28;20301;-40
2022/08/06 13:40:44;;;;;;;2.47;1.30;;;;;;;;;;5029378;28;20206;-37
2022/08/06 13:43:13;;;;;;;1.17;1.10;;;;;;;;;;5030486;28;20222;-36
2022/08/06 13:45:41;;;;;;;1.88;0.90;;;;;;;;;;5022426;28;20203;-37
2022/08/06 13:50:46;;;;;;;1.30;1.20;;;;;;;;;;5198936;22;20237;-33
2022/08/06 13:53:13;;;;;;;2.58;1.20;;;;;;;;;;5048126;28;20202;-31
2022/08/06 13:55:44;;;;;;;1.20;1.00;;;;;;;;;;5052443;28;20299;-34
2022/08/06 13:58:11;;;;;;;1.85;1.15;;;;;;;;;;5051834;28;20218;-29
2022/08/06 14:00:39;;;;;;;1.75;1.25;;;;;;;;;;5046665;28;20206;-33
2022/08/06 14:03:06;;;;;;;1.27;1.20;;;;;;;;;;5051860;28;20253;-33
2022/08/06 14:05:33;;;;;;;1.65;1.27;;;;;;;;;;5049885;28;20205;-32
2022/08/06 14:08:01;;;;;;;1.80;1.20;;;;;;;;;;5044186;28;20222;-32
2022/08/06 14:10:29;;;;;;;2.15;1.00;;;;;;;;;;5052730;28;20198;-34
2022/08/06 14:15:40;;;;;;;3.60;1.23;;;;;;;;;;5033300;28;20544;-32
2022/08/06 14:18:08;;;;;;;1.38;1.05;;;;;;;;;;5049028;28;20500;-32
2022/08/06 14:20:35;;;;;;;1.20;1.10;;;;;;;;;;5051553;28;20206;-32
2022/08/06 14:23:03;;;;;;;1.23;1.15;;;;;;;;;;5050713;28;20222;-34
2022/08/06 14:25:30;;;;;;;5.32;1.27;;;;;;;;;;5053239;28;20193;-31
2022/08/06 14:27:58;;;;;;;1.95;1.17;;;;;;;;;;5033756;28;20218;-35
2022/08/06 14:30:27;;;;;;;1.85;1.00;;;;;;;;;;5036805;28;20206;-33
2022/08/06 14:32:54;;;;;;;2.17;1.30;;;;;;;;;;5053296;28;20202;-35
2022/08/06 14:35:22;;;;;;;2.05;1.13;;;;;;;;;;5051912;28;20205;-35
2022/08/06 14:37:49;;;;;;;1.25;1.20;;;;;;;;;;5044986;28;20226;-32
2022/08/06 14:44:54;;;;;;;1.10;1.10;;;;;;;;;;5051456;28;20204;-35
2022/08/06 14:45:49;;;;;;;2.45;1.00;;;;;;;;;;5041958;28;20212;-32
2022/08/06 14:48:20;;;;;;;1.00;1.00;;;;;;;;;;5042368;28;20224;-32
2022/08/06 14:50:47;;;;;;;1.35;1.00;;;;;;;;;;5046772;28;20213;-34
2022/08/06 14:53:14;;;;;;;1.75;1.00;;;;;;;;;;5043955;28;20202;-33
2022/08/06 14:55:42;;;;;;;2.80;1.30;;;;;;;;;;5050723;28;20652;-33
2022/08/06 14:58:09;;;;;;;1.90;1.10;;;;;;;;;;5052158;28;20229;-32
2022/08/06 15:00:37;;;;;;;1.08;0.90;;;;;;;;;;5044527;28;20206;-34
2022/08/06 15:03:04;;;;;;;1.10;0.90;;;;;;;;;;5053192;28;20208;-32
2022/08/06 15:05:34;;;;;;;3.70;1.40;;;;;;;;;;5053256;28;20217;-33
2022/08/06 15:08:01;;;;;;;2.22;1.10;;;;;;;;;;5047522;28;20225;-35
2022/08/06 15:10:28;;;;;;;1.10;1.00;;;;;;;;;;5055107;28;20674;-31
2022/08/06 15:12:57;;;;;;;1.55;1.13;;;;;;;;;;5056012;28;20211;-33
2022/08/06 15:15:24;;;;;;;1.23;1.20;;;;;;;;;;5048617;28;20651;-34
2022/08/06 15:17:51;;;;;;;0.82;0.82;;;;;;;;;;5055458;28;20221;-32